Palmdale Regional,USAF Plant 42 Airport Palmdale US
ICAO: KPMD
IATA: PMD
Category: Medium
Scheduled Services: Yes

Elevation: 2543 ft
TransAlt. 18000 ft.

Airport Communications:
JOSHUA APP/DEP:124.55
ASOS:118.275
CTAF:123.7
GND:121.9
TWR:123.7

KPMD Zoom In..

If Map Doesn't Load, Click Here

Runways:

(A) RW 04 length 12001 ft width 150 ft
---- / hdg 37

(B) RW 07 length 12002 ft width 200 ft
---- / hdg 71

(C) RW 22 length 12001 ft width 150 ft
---- / hdg 217

(D) RW 25 length 12002 ft width 200 ft
ILS 110.70 / hdg 251

Location; KPMD
Day. 23 / Time. 21.53 Zulu
* Altimeter: 29.87
* Temperature: 33° c. 91.4°f.
* Wind from: 250° Speed 20 kn with Gusts up to 27 kn.
Dewpoint: 09° c.
Visibility: 10 Statute Miles.
Clouds: Clear (automated report).

KPMD 232153Z 25020G27KT 10SM CLR 33/09 A2987 RMK AO2 PK WND 26027/2147 SLP084 T03280089


Wind From 250°
Speed 20 kn.

 
 
jpsmedia.com for Web Design worldairports.se 2018   terms of use